Time;durP1;ratioP1;P1;durP2;ratioP2;P2;SDS_P1;SDS_P2;PMS_P1;PMS_P2;Temp;Humidity;BMP_temperature;BMP_pressure;BME280_temperature;BME280_humidity;BME280_pressure;Samples;Min_cycle;Max_cycle;Signal;HPM_P1;HPM_P2
2023/01/06 00:00:30;;;;;;;2.43;2.10;;;16.10;78.80;;;;;;5091810;28;20858;-66
2023/01/06 00:02:57;;;;;;;3.70;2.30;;;16.10;78.80;;;;;;5092449;28;20447;-65
2023/01/06 00:05:23;;;;;;;3.93;2.40;;;16.10;78.80;;;;;;5091221;28;20457;-65
2023/01/06 00:07:51;;;;;;;2.27;2.07;;;16.10;78.80;;;;;;5091812;28;20447;-65
2023/01/06 00:10:19;;;;;;;2.40;2.10;;;16.10;78.80;;;;;;5091998;28;20442;-66
2023/01/06 00:12:46;;;;;;;2.33;1.90;;;16.10;79.50;;;;;;5092210;28;20940;-65
2023/01/06 00:15:14;;;;;;;2.93;1.70;;;16.10;78.90;;;;;;5092060;28;20446;-65
2023/01/06 00:17:42;;;;;;;4.03;1.83;;;16.10;78.90;;;;;;5090860;28;20493;-65
2023/01/06 00:20:13;;;;;;;2.57;2.03;;;16.10;78.90;;;;;;5092018;28;20549;-65
2023/01/06 00:22:40;;;;;;;2.33;1.90;;;16.10;78.90;;;;;;5091621;28;20938;-65
2023/01/06 00:25:10;;;;;;;2.70;1.80;;;16.10;78.90;;;;;;5091804;28;20466;-65
2023/01/06 00:27:36;;;;;;;2.30;1.70;;;16.10;78.90;;;;;;5091597;28;20446;-66
2023/01/06 00:30:04;;;;;;;2.00;1.80;;;16.20;79.10;;;;;;5082886;28;20537;-65
2023/01/06 00:32:31;;;;;;;3.43;3.13;;;16.10;78.90;;;;;;5071350;28;20478;-66
2023/01/06 00:34:59;;;;;;;3.13;2.50;;;16.10;78.90;;;;;;5071392;28;20928;-66
2023/01/06 00:37:26;;;;;;;3.43;2.10;;;16.10;78.90;;;;;;5080196;28;20569;-65
2023/01/06 00:39:53;;;;;;;2.43;2.07;;;16.10;78.90;;;;;;5091510;28;20446;-65
2023/01/06 00:42:21;;;;;;;3.83;2.00;;;16.10;78.90;;;;;;5090706;28;20538;-65
2023/01/06 00:44:48;;;;;;;4.97;1.77;;;16.10;78.80;;;;;;5091536;28;20446;-65
2023/01/06 00:47:15;;;;;;;3.70;1.80;;;16.10;78.60;;;;;;5092037;28;20493;-66
2023/01/06 00:49:42;;;;;;;2.93;1.60;;;16.10;78.80;;;;;;5090280;28;20548;-65
2023/01/06 00:52:10;;;;;;;1.73;1.60;;;16.10;78.90;;;;;;5091442;28;20703;-65
2023/01/06 00:54:37;;;;;;;3.20;1.37;;;16.10;78.80;;;;;;5090177;28;20470;-65
2023/01/06 00:57:07;;;;;;;2.17;1.80;;;16.20;78.60;;;;;;5045105;28;20481;-65
2023/01/06 00:59:34;;;;;;;2.50;1.90;;;16.20;78.60;;;;;;5110977;28;20449;-65
2023/01/06 01:02:01;;;;;;;2.70;1.87;;;16.20;78.50;;;;;;5111614;28;20445;-65
2023/01/06 01:04:29;;;;;;;2.97;2.00;;;16.20;78.30;;;;;;5110697;28;20878;-66
2023/01/06 01:06:56;;;;;;;2.23;1.80;;;16.20;78.20;;;;;;5093379;28;20447;-65
2023/01/06 01:09:28;;;;;;;2.20;1.80;;;16.30;78.90;;;;;;5090804;28;20533;-64
2023/01/06 01:12:10;;;;;;;2.07;1.63;;;16.30;78.10;;;;;;5091315;28;20431;-66
2023/01/06 01:14:40;;;;;;;2.67;1.80;;;16.30;78.10;;;;;;5091016;28;20438;-66
2023/01/06 01:17:07;;;;;;;3.17;2.37;;;16.20;77.90;;;;;;5089607;28;20577;-65
2023/01/06 01:19:35;;;;;;;2.37;1.73;;;16.20;77.90;;;;;;5070508;28;20807;-65
2023/01/06 01:22:02;;;;;;;2.43;1.90;;;16.20;77.90;;;;;;5071093;28;20548;-66
2023/01/06 01:24:30;;;;;;;3.10;1.90;;;16.20;77.90;;;;;;5070650;28;20486;-65
2023/01/06 01:26:58;;;;;;;2.33;2.10;;;16.20;77.70;;;;;;5072136;28;20564;-66
2023/01/06 01:29:26;;;;;;;1.73;1.60;;;16.20;77.70;;;;;;5072130;28;20457;-66
2023/01/06 01:31:53;;;;;;;2.00;1.80;;;16.20;77.70;;;;;;5091495;28;20476;-65
2023/01/06 01:34:20;;;;;;;2.97;1.70;;;16.20;77.80;;;;;;5091393;28;20536;-65
2023/01/06 01:36:49;;;;;;;3.93;1.77;;;16.20;77.70;;;;;;5090447;28;20474;-66
2023/01/06 01:39:18;;;;;;;3.00;1.80;;;16.20;77.60;;;;;;5091008;28;20942;-65
2023/01/06 01:41:47;;;;;;;2.00;1.70;;;16.10;77.80;;;;;;5083280;28;20456;-65
2023/01/06 01:44:51;;;;;;;2.50;1.60;;;16.10;77.90;;;;;;5081742;28;20446;-66
2023/01/06 01:47:23;;;;;;;2.03;1.67;;;16.10;77.90;;;;;;5107980;28;20790;-65
2023/01/06 01:49:53;;;;;;;2.07;1.80;;;16.10;77.90;;;;;;5090659;28;20482;-66
2023/01/06 01:52:22;;;;;;;1.80;1.57;;;16.10;77.80;;;;;;5090880;28;20431;-65
2023/01/06 01:54:51;;;;;;;2.23;1.60;;;16.10;77.60;;;;;;5089977;28;20460;-65
2023/01/06 01:57:23;;;;;;;2.27;1.47;;;16.20;77.70;;;;;;5097906;28;20483;-66
2023/01/06 01:59:51;;;;;;;1.73;1.50;;;16.20;77.40;;;;;;5111067;28;20484;-65
2023/01/06 02:02:18;;;;;;;2.63;1.60;;;16.10;77.60;;;;;;5110888;28;20947;-65
2023/01/06 02:04:51;;;;;;;2.40;1.83;;;16.10;77.60;;;;;;5110087;28;20611;-65
2023/01/06 02:07:18;;;;;;;1.70;1.60;;;16.10;77.70;;;;;;5070247;28;21010;-65
2023/01/06 02:09:53;;;;;;;1.50;1.40;;;16.00;78.80;;;;;;5069973;28;20485;-65
2023/01/06 02:12:21;;;;;;;1.67;1.57;;;15.90;78.10;;;;;;5070501;28;20521;-65
2023/01/06 02:14:48;;;;;;;1.87;1.70;;;16.00;78.10;;;;;;5070875;28;20481;-65
2023/01/06 02:17:29;;;;;;;2.00;1.40;;;16.10;78.00;;;;;;5078401;28;20838;-65
2023/01/06 02:20:30;;;;;;;2.40;1.63;;;16.10;77.90;;;;;;5083147;28;20490;-65
2023/01/06 02:23:38;;;;;;;1.60;1.43;;;16.00;78.00;;;;;;5057221;28;20455;-66
2023/01/06 02:26:37;;;;;;;2.20;1.70;;;16.10;78.30;;;;;;4994103;28;21014;-66
2023/01/06 02:29:30;;;;;;;1.90;1.60;;;15.90;78.70;;;;;;5074324;28;20943;-65
2023/01/06 02:32:13;;;;;;;2.17;1.80;;;15.70;79.00;;;;;;5073696;28;20430;-65
2023/01/06 02:34:49;;;;;;;1.50;1.40;;;15.60;79.70;;;;;;5073048;28;20519;-65
2023/01/06 02:37:26;;;;;;;2.43;1.87;;;15.70;79.70;;;;;;5073759;28;20989;-65
2023/01/06 02:40:07;;;;;;;1.77;1.63;;;15.60;79.80;;;;;;5073637;28;20431;-65
2023/01/06 02:42:45;;;;;;;2.00;1.50;;;15.50;80.10;;;;;;5089420;28;20469;-65
2023/01/06 02:45:20;;;;;;;1.77;1.67;;;15.60;80.60;;;;;;5093764;28;20426;-65
2023/01/06 02:47:59;;;;;;;5.33;2.07;;;15.50;80.40;;;;;;5093418;28;20453;-65
2023/01/06 02:50:37;;;;;;;2.50;1.60;;;15.60;80.30;;;;;;5093561;28;20829;-65
2023/01/06 02:53:11;;;;;;;2.00;1.77;;;15.60;80.40;;;;;;5091773;28;20816;-65
2023/01/06 02:55:43;;;;;;;1.80;1.70;;;15.70;80.30;;;;;;5072901;28;20450;-65
2023/01/06 02:58:15;;;;;;;3.97;1.80;;;15.70;80.40;;;;;;5102978;28;20478;-65
2023/01/06 03:00:45;;;;;;;2.43;1.90;;;15.60;80.40;;;;;;5113594;28;20434;-66
2023/01/06 03:03:17;;;;;;;1.60;1.50;;;15.60;80.50;;;;;;5114014;28;20450;-66
2023/01/06 03:05:48;;;;;;;3.10;1.83;;;15.70;80.60;;;;;;5100200;28;20455;-65
2023/01/06 03:08:19;;;;;;;2.07;1.80;;;15.80;80.50;;;;;;5093095;28;20446;-65
2023/01/06 03:10:48;;;;;;;2.00;1.80;;;15.80;81.20;;;;;;5093067;28;20431;-65
2023/01/06 03:13:21;;;;;;;2.40;2.20;;;15.80;80.70;;;;;;5093621;28;20629;-65
2023/01/06 03:15:48;;;;;;;2.00;1.80;;;15.80;80.60;;;;;;5092723;28;20431;-65
2023/01/06 03:18:16;;;;;;;2.20;1.90;;;15.90;80.70;;;;;;5076622;28;20488;-65
2023/01/06 03:20:43;;;;;;;2.03;1.70;;;15.90;80.80;;;;;;5072661;28;20455;-65
2023/01/06 03:23:11;;;;;;;2.07;1.90;;;15.80;81.10;;;;;;5078337;28;20443;-65
2023/01/06 03:25:38;;;;;;;2.27;2.07;;;15.80;81.20;;;;;;5084259;28;20471;-65
2023/01/06 03:28:05;;;;;;;1.70;1.60;;;15.80;81.40;;;;;;5073030;28;20443;-65
2023/01/06 03:30:41;;;;;;;2.40;1.90;;;15.80;81.60;;;;;;5072391;28;20530;-65
2023/01/06 03:33:19;;;;;;;2.33;1.60;;;15.70;81.90;;;;;;5072575;28;20427;-66
2023/01/06 03:35:58;;;;;;;2.73;1.97;;;15.70;81.80;;;;;;5072197;28;20427;-66
2023/01/06 03:38:36;;;;;;;2.10;1.90;;;15.80;81.70;;;;;;5072534;28;20463;-65
2023/01/06 03:41:14;;;;;;;3.07;2.00;;;15.80;81.40;;;;;;5081246;28;20642;-65
2023/01/06 03:43:45;;;;;;;3.07;2.07;;;15.90;81.30;;;;;;5091774;28;20529;-65
2023/01/06 03:46:22;;;;;;;2.90;1.90;;;15.80;81.20;;;;;;5093037;28;20476;-66
2023/01/06 03:48:58;;;;;;;2.00;1.87;;;15.80;81.20;;;;;;5091932;28;20427;-66
2023/01/06 03:51:39;;;;;;;2.87;1.90;;;15.80;81.30;;;;;;5092384;28;20493;-66
2023/01/06 03:54:14;;;;;;;2.60;1.70;;;15.80;81.20;;;;;;5074762;28;20455;-66
2023/01/06 03:56:45;;;;;;;1.80;1.70;;;15.80;81.10;;;;;;5076822;28;20486;-65
2023/01/06 03:59:15;;;;;;;1.83;1.70;;;15.90;81.20;;;;;;5112778;28;20466;-65
2023/01/06 04:01:42;;;;;;;2.13;1.60;;;15.80;81.00;;;;;;5112288;28;20445;-65
2023/01/06 04:04:10;;;;;;;1.70;1.57;;;15.80;81.00;;;;;;5109270;28;20528;-65
2023/01/06 04:06:38;;;;;;;2.37;1.73;;;15.80;81.10;;;;;;5091653;28;20446;-65
2023/01/06 04:09:05;;;;;;;2.63;1.37;;;15.80;81.20;;;;;;5092494;28;20453;-65
2023/01/06 04:14:16;;;;;;;1.60;1.50;;;15.70;81.30;;;;;;5092045;28;20468;-65
2023/01/06 04:16:43;;;;;;;1.90;1.70;;;15.70;81.40;;;;;;5083465;28;20490;-65
2023/01/06 04:19:09;;;;;;;1.60;1.50;;;15.80;81.30;;;;;;5077007;28;20914;-65
2023/01/06 04:21:38;;;;;;;1.77;1.67;;;15.80;81.20;;;;;;5077661;28;20447;-65
2023/01/06 04:24:05;;;;;;;2.00;1.80;;;15.80;81.20;;;;;;5079324;28;20453;-65
2023/01/06 04:26:32;;;;;;;2.23;1.67;;;15.80;81.10;;;;;;5075518;28;20478;-66
2023/01/06 04:28:59;;;;;;;1.90;1.80;;;15.80;81.20;;;;;;5078312;28;20454;-65
2023/01/06 04:31:26;;;;;;;1.83;1.73;;;15.80;81.40;;;;;;5091544;28;20452;-65
2023/01/06 04:33:56;;;;;;;2.33;1.90;;;15.80;81.20;;;;;;5091199;28;20457;-65
2023/01/06 04:36:23;;;;;;;2.10;1.90;;;15.80;81.20;;;;;;5091277;28;20451;-65
2023/01/06 04:38:51;;;;;;;2.57;1.90;;;15.70;81.40;;;;;;5094892;28;20473;-65
2023/01/06 04:41:18;;;;;;;2.10;1.90;;;15.70;81.60;;;;;;5091353;28;20443;-65
2023/01/06 04:43:45;;;;;;;2.40;2.20;;;15.70;81.60;;;;;;5079609;28;20446;-66
2023/01/06 04:46:11;;;;;;;4.13;2.40;;;15.60;81.70;;;;;;5086035;28;20451;-65
2023/01/06 04:48:38;;;;;;;2.73;2.27;;;15.60;81.90;;;;;;5071606;28;20443;-66
2023/01/06 04:51:07;;;;;;;2.43;2.23;;;15.60;82.00;;;;;;5077083;28;20481;-66
2023/01/06 04:53:34;;;;;;;2.40;2.20;;;15.60;82.20;;;;;;5091026;28;20447;-65
2023/01/06 04:56:04;;;;;;;2.53;2.33;;;15.60;82.20;;;;;;5091687;28;20442;-65
2023/01/06 04:58:31;;;;;;;2.60;2.40;;;15.60;82.20;;;;;;5109164;28;20473;-65
2023/01/06 05:01:02;;;;;;;3.13;2.73;;;15.70;82.10;;;;;;5111091;28;20447;-65
2023/01/06 05:03:29;;;;;;;2.90;2.70;;;15.60;82.20;;;;;;5091183;28;20462;-65
2023/01/06 05:05:56;;;;;;;3.27;2.97;;;15.70;82.40;;;;;;5088670;28;20462;-65
2023/01/06 05:08:23;;;;;;;3.30;3.00;;;15.60;82.40;;;;;;5082931;28;20806;-67
2023/01/06 05:10:50;;;;;;;4.10;3.10;;;15.50;83.00;;;;;;5070819;28;20443;-67
2023/01/06 05:13:18;;;;;;;4.20;3.10;;;15.40;83.20;;;;;;5089262;28;20454;-67
2023/01/06 05:15:44;;;;;;;3.37;2.70;;;15.40;83.70;;;;;;5090951;28;20485;-67
2023/01/06 05:18:12;;;;;;;3.13;2.83;;;15.40;83.50;;;;;;5091070;28;20474;-67
2023/01/06 05:20:39;;;;;;;2.90;2.70;;;15.50;83.50;;;;;;5089834;28;20507;-67
2023/01/06 05:23:11;;;;;;;2.70;2.40;;;15.40;83.50;;;;;;5091607;28;20865;-67
2023/01/06 05:25:37;;;;;;;3.00;2.70;;;15.40;83.30;;;;;;5090684;28;20466;-67
2023/01/06 05:28:05;;;;;;;3.17;2.53;;;15.50;83.30;;;;;;5077262;28;20481;-69
2023/01/06 05:30:33;;;;;;;2.50;2.30;;;15.50;83.20;;;;;;5066811;28;20466;-66
2023/01/06 05:33:00;;;;;;;2.43;2.23;;;15.50;83.10;;;;;;5067557;28;21078;-66
2023/01/06 05:35:27;;;;;;;2.43;2.23;;;15.50;82.70;;;;;;5074173;28;21883;-66
2023/01/06 05:37:54;;;;;;;2.90;2.47;;;15.50;82.80;;;;;;5067333;28;20482;-66
2023/01/06 05:40:21;;;;;;;3.17;2.57;;;15.40;82.90;;;;;;5084175;28;20460;-66
2023/01/06 05:42:48;;;;;;;3.47;2.67;;;15.40;83.00;;;;;;5080273;28;20448;-66
2023/01/06 05:45:15;;;;;;;4.23;2.30;;;15.30;83.10;;;;;;5077358;28;20434;-66
2023/01/06 05:47:43;;;;;;;2.90;2.50;;;15.40;83.10;;;;;;5090360;28;20801;-67
2023/01/06 05:50:10;;;;;;;2.90;2.63;;;15.40;82.90;;;;;;5092957;28;20477;-65
2023/01/06 05:52:37;;;;;;;2.87;2.67;;;15.40;82.70;;;;;;5094692;28;20525;-65
2023/01/06 05:55:04;;;;;;;3.00;2.57;;;15.40;82.60;;;;;;5094651;28;20452;-65
2023/01/06 05:57:33;;;;;;;3.80;2.70;;;15.40;82.60;;;;;;5094641;28;20445;-66
2023/01/06 06:00:00;;;;;;;2.57;2.33;;;15.40;82.20;;;;;;5098801;28;20488;-66
2023/01/06 06:02:27;;;;;;;2.90;2.43;;;15.30;82.10;;;;;;5104324;28;20510;-66
2023/01/06 06:04:55;;;;;;;2.70;2.47;;;15.20;82.30;;;;;;5103380;28;20522;-68
2023/01/06 06:07:22;;;;;;;4.57;2.87;;;15.20;82.40;;;;;;5087642;28;20974;-69
2023/01/06 06:09:48;;;;;;;2.60;2.40;;;15.20;82.40;;;;;;5091972;28;20542;-71
2023/01/06 06:12:18;;;;;;;3.07;2.63;;;15.10;82.60;;;;;;5092972;28;20718;-73
2023/01/06 06:14:46;;;;;;;2.80;2.60;;;15.10;82.60;;;;;;5092868;28;20500;-68
2023/01/06 06:17:12;;;;;;;3.03;2.80;;;15.10;82.60;;;;;;5094866;28;20534;-69
2023/01/06 06:19:39;;;;;;;3.03;2.77;;;15.10;82.50;;;;;;5095129;28;20470;-69
2023/01/06 06:22:07;;;;;;;3.53;2.57;;;15.10;82.50;;;;;;5089143;28;20518;-68
2023/01/06 06:24:34;;;;;;;3.83;3.00;;;15.10;82.90;;;;;;5086731;28;20518;-68
2023/01/06 06:27:02;;;;;;;3.00;2.80;;;15.10;82.60;;;;;;5074665;28;20489;-69
2023/01/06 06:29:28;;;;;;;3.00;2.77;;;15.10;82.50;;;;;;5069386;28;20524;-71
2023/01/06 06:31:55;;;;;;;3.50;2.93;;;15.10;82.50;;;;;;5069554;28;20489;-71
2023/01/06 06:34:22;;;;;;;3.03;2.67;;;15.10;82.40;;;;;;5070323;28;20475;-72
2023/01/06 06:36:49;;;;;;;3.60;3.20;;;15.20;82.30;;;;;;5070687;28;20473;-71
2023/01/06 06:39:17;;;;;;;3.87;3.10;;;15.10;82.50;;;;;;5064543;28;20483;-72
2023/01/06 06:41:45;;;;;;;4.23;3.20;;;15.10;82.40;;;;;;5069866;28;20479;-69
2023/01/06 06:44:11;;;;;;;3.60;3.30;;;15.00;82.40;;;;;;5070036;28;20474;-69
2023/01/06 06:46:38;;;;;;;4.17;3.10;;;14.90;82.70;;;;;;5002638;28;20482;-71
2023/01/06 06:49:05;;;;;;;5.43;2.87;;;15.00;82.90;;;;;;5068896;28;20475;-71
2023/01/06 06:51:32;;;;;;;4.10;2.90;;;14.90;82.60;;;;;;5066301;28;21015;-71
2023/01/06 06:53:59;;;;;;;3.00;2.80;;;14.80;82.70;;;;;;5067938;28;20492;-71
2023/01/06 06:56:27;;;;;;;3.70;2.80;;;14.80;82.80;;;;;;5068564;28;20487;-71
2023/01/06 06:58:54;;;;;;;3.57;3.27;;;14.80;82.80;;;;;;5073515;28;20482;-72
2023/01/06 07:01:21;;;;;;;2.93;2.70;;;14.70;82.80;;;;;;5067293;28;20485;-72
2023/01/06 07:03:48;;;;;;;4.37;3.47;;;14.60;83.10;;;;;;5065641;28;20479;-71
2023/01/06 07:06:19;;;;;;;3.47;3.10;;;14.60;83.20;;;;;;5081044;28;20533;-71
2023/01/06 07:08:47;;;;;;;3.50;3.20;;;14.60;83.20;;;;;;5076180;28;20471;-70
2023/01/06 07:11:14;;;;;;;3.67;2.90;;;14.70;83.10;;;;;;5087314;28;20998;-70
2023/01/06 07:13:43;;;;;;;2.90;2.50;;;14.60;83.00;;;;;;5087640;28;20443;-70
2023/01/06 07:16:11;;;;;;;4.53;2.90;;;14.80;82.60;;;;;;5068192;28;20566;-72
2023/01/06 07:18:38;;;;;;;2.50;2.30;;;14.70;82.30;;;;;;5074580;28;21022;-75
2023/01/06 07:21:06;;;;;;;2.80;2.50;;;14.70;82.50;;;;;;5068663;28;20467;-70
2023/01/06 07:23:33;;;;;;;6.03;2.80;;;14.70;82.20;;;;;;5073767;28;20489;-70
2023/01/06 07:26:01;;;;;;;3.03;2.73;;;14.60;82.00;;;;;;5074460;28;20544;-71
2023/01/06 07:28:29;;;;;;;2.63;2.43;;;14.60;82.20;;;;;;5073153;28;20478;-71
2023/01/06 07:30:58;;;;;;;2.73;2.40;;;14.70;82.50;;;;;;5075993;28;20955;-71
2023/01/06 07:33:25;;;;;;;3.20;2.70;;;14.80;81.70;;;;;;5090559;28;20449;-70
2023/01/06 07:35:56;;;;;;;3.47;2.43;;;14.90;81.10;;;;;;5083265;28;20447;-71
2023/01/06 07:38:24;;;;;;;4.50;2.60;;;14.90;80.70;;;;;;5071597;28;20522;-71
2023/01/06 07:40:51;;;;;;;5.47;2.67;;;15.00;80.30;;;;;;5071857;28;20536;-71
2023/01/06 07:43:21;;;;;;;4.13;2.80;;;15.00;79.70;;;;;;5072568;28;20443;-71
2023/01/06 07:45:48;;;;;;;3.47;2.57;;;15.00;79.80;;;;;;5072027;28;20447;-71
2023/01/06 07:48:17;;;;;;;2.57;2.37;;;15.00;79.70;;;;;;5072403;28;20543;-71
2023/01/06 07:50:44;;;;;;;3.40;2.20;;;15.10;79.40;;;;;;5071511;28;20522;-71
2023/01/06 07:53:11;;;;;;;2.83;2.60;;;15.10;78.90;;;;;;5020827;28;20451;-71
2023/01/06 07:55:38;;;;;;;2.83;2.40;;;15.10;78.70;;;;;;5072629;28;20542;-71
2023/01/06 07:58:05;;;;;;;3.43;2.47;;;15.20;78.40;;;;;;5100107;28;20618;-71
2023/01/06 08:00:33;;;;;;;3.00;2.60;;;15.10;77.90;;;;;;5112861;28;20888;-71
2023/01/06 08:03:03;;;;;;;3.53;2.40;;;15.10;78.10;;;;;;5112565;28;20456;-71
2023/01/06 08:05:31;;;;;;;2.63;2.43;;;15.00;78.30;;;;;;5113015;28;20452;-71
2023/01/06 08:07:58;;;;;;;3.33;2.37;;;15.00;78.50;;;;;;5112197;28;20449;-71
2023/01/06 08:10:25;;;;;;;3.83;2.30;;;15.10;78.00;;;;;;5113015;28;20466;-71
2023/01/06 08:12:52;;;;;;;3.13;2.03;;;15.20;77.90;;;;;;5111997;28;20805;-71
2023/01/06 08:15:19;;;;;;;3.83;2.10;;;15.20;76.90;;;;;;5112775;28;20445;-71
2023/01/06 08:17:46;;;;;;;1.77;1.67;;;15.20;76.30;;;;;;5112289;28;20442;-71
2023/01/06 08:20:13;;;;;;;2.20;2.00;;;15.20;75.70;;;;;;5112240;28;20497;-71
2023/01/06 08:22:41;;;;;;;1.97;1.77;;;15.20;75.40;;;;;;5112518;28;20473;-71
2023/01/06 08:25:09;;;;;;;2.27;1.83;;;15.10;75.30;;;;;;5112664;28;20449;-70
2023/01/06 08:27:36;;;;;;;2.33;1.77;;;15.10;74.30;;;;;;5111829;28;21086;-71
2023/01/06 08:30:03;;;;;;;2.63;1.80;;;15.00;74.20;;;;;;5111708;28;20604;-71
2023/01/06 08:32:30;;;;;;;1.97;1.63;;;15.00;73.90;;;;;;5112549;28;20473;-71
2023/01/06 08:34:57;;;;;;;2.37;1.50;;;15.00;73.50;;;;;;5111747;28;20862;-71
2023/01/06 08:37:24;;;;;;;1.30;1.20;;;15.00;73.50;;;;;;5112057;28;20456;-71
2023/01/06 08:39:52;;;;;;;2.27;1.43;;;14.90;72.50;;;;;;5111799;28;20477;-71
2023/01/06 08:42:19;;;;;;;1.70;1.43;;;15.00;72.90;;;;;;5112042;28;20442;-71
2023/01/06 08:44:47;;;;;;;1.40;1.30;;;14.90;72.50;;;;;;5111779;28;20817;-71
2023/01/06 08:47:14;;;;;;;1.37;1.10;;;14.90;71.90;;;;;;5112293;28;20804;-71
2023/01/06 08:49:41;;;;;;;1.30;1.20;;;14.90;72.20;;;;;;5111908;28;20557;-71
2023/01/06 08:52:08;;;;;;;3.57;1.20;;;15.00;72.20;;;;;;5111616;28;20615;-71
2023/01/06 08:54:35;;;;;;;0.90;0.90;;;15.00;71.90;;;;;;5112270;28;20441;-71
2023/01/06 08:57:03;;;;;;;1.20;1.03;;;14.80;71.00;;;;;;5105724;28;20580;-71
2023/01/06 08:59:30;;;;;;;1.97;1.00;;;14.90;71.90;;;;;;5091428;28;20514;-70
2023/01/06 09:01:59;;;;;;;1.13;1.03;;;14.90;71.10;;;;;;5081071;28;20469;-70
2023/01/06 09:04:26;;;;;;;2.10;1.10;;;14.80;71.20;;;;;;5071487;28;20447;-71
2023/01/06 09:06:53;;;;;;;1.67;1.20;;;14.80;71.70;;;;;;5070527;28;20447;-70
2023/01/06 09:09:20;;;;;;;1.17;0.90;;;14.90;71.70;;;;;;5071474;28;20821;-70
2023/01/06 09:11:47;;;;;;;1.00;0.80;;;14.90;71.00;;;;;;5070906;28;20538;-71
2023/01/06 09:14:15;;;;;;;1.20;1.10;;;14.90;70.80;;;;;;5071565;28;20447;-71
2023/01/06 09:16:42;;;;;;;1.37;0.90;;;14.90;70.70;;;;;;5071153;28;20543;-71
2023/01/06 09:19:10;;;;;;;1.00;0.90;;;14.90;70.20;;;;;;5070941;28;20510;-71
2023/01/06 09:21:37;;;;;;;1.27;0.83;;;15.00;70.40;;;;;;5071499;28;20462;-71
2023/01/06 09:24:04;;;;;;;1.50;1.00;;;15.00;69.80;;;;;;5071651;28;20457;-71
2023/01/06 09:26:31;;;;;;;0.80;0.80;;;15.10;69.20;;;;;;5075383;28;20566;-71
2023/01/06 09:28:58;;;;;;;1.00;0.70;;;15.10;68.80;;;;;;5074753;28;20444;-71
2023/01/06 09:31:26;;;;;;;1.80;0.93;;;15.20;69.00;;;;;;5074983;28;20443;-71
2023/01/06 09:33:53;;;;;;;0.93;0.77;;;15.20;67.60;;;;;;5074864;28;20874;-71
2023/01/06 09:36:20;;;;;;;0.60;0.60;;;15.10;67.50;;;;;;5075211;28;20466;-70
2023/01/06 09:38:47;;;;;;;0.83;0.77;;;15.10;68.00;;;;;;5074137;28;20451;-69
2023/01/06 09:41:35;;;;;;;0.60;0.60;;;15.20;68.20;;;;;;5074757;28;20483;-71
2023/01/06 09:44:09;;;;;;;0.60;0.60;;;15.30;67.60;;;;;;5074266;28;20514;-71
2023/01/06 09:46:40;;;;;;;0.67;0.67;;;15.30;67.00;;;;;;5074893;28;20481;-70
2023/01/06 09:49:15;;;;;;;0.73;0.73;;;15.30;67.20;;;;;;5074067;28;20442;-71
2023/01/06 09:51:43;;;;;;;0.97;0.70;;;15.40;66.50;;;;;;5074505;28;20486;-71
2023/01/06 09:54:16;;;;;;;1.20;0.90;;;15.50;66.70;;;;;;5073904;28;20530;-71
2023/01/06 09:56:47;;;;;;;0.70;0.70;;;15.50;65.40;;;;;;5080307;28;20518;-71
2023/01/06 09:59:19;;;;;;;1.07;0.87;;;15.50;65.60;;;;;;5114939;28;20485;-71
2023/01/06 10:01:50;;;;;;;0.63;0.63;;;15.50;65.30;;;;;;5096171;28;20435;-71
2023/01/06 10:04:22;;;;;;;1.00;0.90;;;15.60;66.10;;;;;;5074667;28;20440;-71
2023/01/06 10:07:02;;;;;;;0.60;0.60;;;15.80;66.00;;;;;;5073817;28;20955;-71
2023/01/06 10:09:40;;;;;;;1.17;0.87;;;15.90;65.70;;;;;;5074270;28;20450;-71
2023/01/06 10:12:21;;;;;;;1.00;0.83;;;16.00;65.00;;;;;;5074130;28;20485;-71
2023/01/06 10:15:00;;;;;;;1.17;0.73;;;16.00;65.20;;;;;;5074391;28;20792;-71
2023/01/06 10:18:02;;;;;;;0.67;0.67;;;15.90;63.90;;;;;;5074082;28;20434;-71
2023/01/06 10:20:44;;;;;;;0.80;0.80;;;16.00;64.60;;;;;;5046425;28;20569;-71
2023/01/06 10:23:30;;;;;;;1.17;0.90;;;16.10;64.50;;;;;;5073626;28;20446;-71
2023/01/06 10:26:03;;;;;;;0.80;0.80;;;16.10;64.30;;;;;;5073862;28;20439;-71
2023/01/06 10:28:41;;;;;;;1.33;0.80;;;16.20;64.00;;;;;;5074034;28;20472;-71
2023/01/06 10:31:12;;;;;;;0.67;0.67;;;16.10;63.50;;;;;;5073273;28;20466;-71
2023/01/06 10:33:43;;;;;;;1.33;0.93;;;16.00;63.80;;;;;;5074056;28;20506;-71
2023/01/06 10:36:15;;;;;;;0.70;0.70;;;15.80;64.70;;;;;;5072177;28;20442;-71
2023/01/06 10:38:45;;;;;;;0.97;0.80;;;15.70;64.90;;;;;;5073832;28;20953;-71
2023/01/06 10:41:19;;;;;;;0.67;0.60;;;15.70;65.70;;;;;;5073008;28;20553;-71
2023/01/06 10:43:46;;;;;;;1.60;0.70;;;15.80;64.80;;;;;;5073935;28;20439;-70
2023/01/06 10:46:15;;;;;;;0.73;0.70;;;15.60;64.90;;;;;;5072954;28;20455;-71
2023/01/06 10:48:42;;;;;;;1.10;0.77;;;15.60;65.40;;;;;;5073731;28;20451;-71
2023/01/06 10:51:34;;;;;;;0.70;0.70;;;15.60;65.10;;;;;;5072626;28;20479;-71
2023/01/06 10:54:05;;;;;;;0.53;0.53;;;15.70;64.70;;;;;;5073309;28;20432;-71
2023/01/06 10:56:34;;;;;;;0.87;0.83;;;15.70;65.00;;;;;;5076041;28;20494;-71
2023/01/06 10:59:06;;;;;;;0.70;0.70;;;15.90;64.50;;;;;;5113493;28;20549;-71
2023/01/06 11:01:33;;;;;;;0.70;0.70;;;15.80;64.60;;;;;;5107256;28;20895;-71
2023/01/06 11:04:10;;;;;;;0.70;0.70;;;16.00;65.00;;;;;;5092834;28;20456;-71
2023/01/06 11:06:42;;;;;;;0.90;0.70;;;16.20;64.40;;;;;;5093582;28;20435;-71
2023/01/06 11:09:25;;;;;;;0.70;0.70;;;16.40;64.10;;;;;;5092742;28;20488;-71
2023/01/06 11:11:54;;;;;;;1.20;1.10;;;16.40;63.60;;;;;;5092853;28;20446;-71
2023/01/06 11:14:25;;;;;;;0.90;0.80;;;16.50;64.00;;;;;;5093431;28;20453;-71
2023/01/06 11:16:57;;;;;;;1.13;1.03;;;16.40;64.10;;;;;;5093107;28;20457;-71
2023/01/06 11:19:34;;;;;;;0.67;0.67;;;16.50;64.60;;;;;;5075234;28;20496;-71
2023/01/06 11:22:03;;;;;;;1.63;1.00;;;16.70;64.10;;;;;;5092741;28;20434;-72
2023/01/06 11:24:30;;;;;;;2.33;1.13;;;16.90;63.90;;;;;;5093073;28;20442;-71
2023/01/06 11:26:58;;;;;;;0.73;0.73;;;16.90;63.10;;;;;;5092770;28;20502;-71
2023/01/06 11:29:29;;;;;;;0.90;0.70;;;16.90;63.30;;;;;;5092825;28;20442;-71
2023/01/06 11:31:57;;;;;;;0.93;0.80;;;16.90;63.50;;;;;;5092603;28;20495;-71
2023/01/06 11:34:27;;;;;;;0.70;0.70;;;17.10;63.90;;;;;;5093044;28;20571;-71
2023/01/06 11:36:55;;;;;;;1.80;0.80;;;17.20;62.70;;;;;;5092555;28;20431;-71
2023/01/06 11:39:28;;;;;;;1.90;0.80;;;17.10;62.90;;;;;;5093175;28;20537;-71
2023/01/06 11:42:02;;;;;;;0.73;0.73;;;17.30;63.10;;;;;;5092101;28;20954;-71
2023/01/06 11:44:32;;;;;;;1.10;0.97;;;17.30;62.40;;;;;;5092893;28;20427;-71
2023/01/06 11:47:02;;;;;;;1.13;0.63;;;17.30;63.10;;;;;;5091920;28;20445;-71
2023/01/06 11:49:34;;;;;;;1.27;1.17;;;17.20;62.30;;;;;;5092326;28;20439;-71
2023/01/06 11:52:02;;;;;;;1.17;0.80;;;17.20;62.40;;;;;;5092420;28;20427;-71
2023/01/06 11:54:39;;;;;;;0.87;0.87;;;17.30;61.90;;;;;;5092821;28;20517;-71
2023/01/06 11:57:29;;;;;;;0.90;0.90;;;17.20;61.40;;;;;;5097993;28;20429;-71
2023/01/06 12:00:24;;;;;;;1.37;1.00;;;17.30;61.60;;;;;;5112377;28;20496;-71
2023/01/06 12:03:02;;;;;;;0.90;0.90;;;17.40;61.40;;;;;;5071864;28;20455;-71
2023/01/06 12:05:35;;;;;;;1.83;0.90;;;17.50;61.60;;;;;;5072123;28;20442;-71
2023/01/06 12:08:06;;;;;;;1.10;0.80;;;17.60;62.70;;;;;;5071912;28;20788;-71
2023/01/06 12:10:37;;;;;;;1.13;0.70;;;17.50;61.60;;;;;;5072227;28;20511;-71
2023/01/06 12:13:04;;;;;;;1.80;0.80;;;17.60;61.20;;;;;;5071173;28;20501;-71
2023/01/06 12:15:34;;;;;;;1.00;0.90;;;17.60;60.50;;;;;;5071868;28;20946;-70
2023/01/06 12:18:04;;;;;;;1.20;1.10;;;17.40;60.60;;;;;;5071101;28;20447;-71
2023/01/06 12:20:34;;;;;;;0.87;0.87;;;17.30;60.40;;;;;;5071627;28;21058;-71
2023/01/06 12:23:04;;;;;;;0.83;0.80;;;17.30;60.10;;;;;;5071135;28;20432;-71
2023/01/06 12:25:37;;;;;;;2.57;0.90;;;17.20;60.70;;;;;;5071880;28;20447;-71
2023/01/06 12:28:05;;;;;;;0.60;0.60;;;17.10;61.00;;;;;;5071430;28;20467;-72
2023/01/06 12:30:36;;;;;;;0.63;0.63;;;16.90;61.00;;;;;;5071594;28;20449;-72
2023/01/06 12:33:11;;;;;;;1.47;1.03;;;16.70;61.90;;;;;;5071122;28;20447;-72
2023/01/06 12:35:41;;;;;;;1.83;0.90;;;16.60;62.20;;;;;;5071744;28;20481;-71
2023/01/06 12:38:16;;;;;;;1.73;0.90;;;16.50;62.20;;;;;;5071372;28;20432;-71
2023/01/06 12:40:50;;;;;;;1.53;0.83;;;16.40;62.90;;;;;;5071582;28;20520;-71
2023/01/06 12:43:18;;;;;;;1.17;1.07;;;16.50;63.10;;;;;;5036324;28;20443;-71
2023/01/06 12:45:54;;;;;;;0.87;0.80;;;16.50;63.70;;;;;;5071795;28;20443;-70
2023/01/06 12:48:30;;;;;;;0.93;0.83;;;16.50;63.70;;;;;;5071561;28;20462;-71
2023/01/06 12:51:01;;;;;;;0.70;0.70;;;16.60;63.40;;;;;;5070478;28;20497;-71
2023/01/06 12:53:32;;;;;;;0.80;0.80;;;17.00;62.70;;;;;;5071676;28;20447;-71
2023/01/06 12:56:17;;;;;;;0.80;0.80;;;16.90;62.30;;;;;;5070751;28;20482;-71
2023/01/06 12:58:50;;;;;;;0.70;0.70;;;16.70;62.90;;;;;;5109821;28;20441;-71
2023/01/06 13:01:20;;;;;;;1.00;0.97;;;16.60;63.10;;;;;;5106530;28;20539;-71
2023/01/06 13:04:25;;;;;;;0.60;0.60;;;16.30;62.30;;;;;;5092036;28;20525;-71
2023/01/06 13:07:06;;;;;;;0.80;0.80;;;16.30;63.20;;;;;;5091767;28;20422;-71